sensor_id;sensor_type;location;lat;lon;timestamp;P1;durP1;ratioP1;P2;durP2;ratioP2
3261;SDS011;1643;47.746;9.000;2022-11-25T00:01:15;5.20;;;4.00;;
3261;SDS011;1643;47.746;9.000;2022-11-25T00:03:43;5.20;;;4.30;;
3261;SDS011;1643;47.746;9.000;2022-11-25T00:06:10;6.27;;;3.83;;
3261;SDS011;1643;47.746;9.000;2022-11-25T00:08:41;8.23;;;4.47;;
3261;SDS011;1643;47.746;9.000;2022-11-25T00:11:08;9.33;;;4.87;;
3261;SDS011;1643;47.746;9.000;2022-11-25T00:13:34;6.57;;;3.93;;
3261;SDS011;1643;47.746;9.000;2022-11-25T00:16:19;6.17;;;4.30;;
3261;SDS011;1643;47.746;9.000;2022-11-25T00:18:46;5.10;;;4.60;;
3261;SDS011;1643;47.746;9.000;2022-11-25T00:21:15;8.17;;;5.00;;
3261;SDS011;1643;47.746;9.000;2022-11-25T00:23:43;4.80;;;4.23;;
3261;SDS011;1643;47.746;9.000;2022-11-25T00:26:15;7.00;;;4.70;;
3261;SDS011;1643;47.746;9.000;2022-11-25T00:28:42;5.77;;;4.60;;
3261;SDS011;1643;47.746;9.000;2022-11-25T00:31:13;4.77;;;4.00;;
3261;SDS011;1643;47.746;9.000;2022-11-25T00:33:41;10.30;;;5.30;;
3261;SDS011;1643;47.746;9.000;2022-11-25T00:36:13;6.50;;;4.10;;
3261;SDS011;1643;47.746;9.000;2022-11-25T00:38:53;5.73;;;4.13;;
3261;SDS011;1643;47.746;9.000;2022-11-25T00:41:19;6.70;;;4.43;;
3261;SDS011;1643;47.746;9.000;2022-11-25T00:44:03;9.10;;;4.67;;
3261;SDS011;1643;47.746;9.000;2022-11-25T00:46:47;6.67;;;4.50;;
3261;SDS011;1643;47.746;9.000;2022-11-25T00:49:13;5.67;;;4.47;;
3261;SDS011;1643;47.746;9.000;2022-11-25T00:51:38;5.40;;;4.20;;
3261;SDS011;1643;47.746;9.000;2022-11-25T00:54:04;6.40;;;4.40;;
3261;SDS011;1643;47.746;9.000;2022-11-25T00:56:30;6.37;;;4.37;;
3261;SDS011;1643;47.746;9.000;2022-11-25T00:58:56;6.90;;;4.10;;
3261;SDS011;1643;47.746;9.000;2022-11-25T01:01:22;7.37;;;5.60;;
3261;SDS011;1643;47.746;9.000;2022-11-25T01:03:48;4.33;;;3.93;;
3261;SDS011;1643;47.746;9.000;2022-11-25T01:06:15;7.90;;;4.27;;
3261;SDS011;1643;47.746;9.000;2022-11-25T01:08:41;4.50;;;3.73;;
3261;SDS011;1643;47.746;9.000;2022-11-25T01:11:07;4.40;;;4.00;;
3261;SDS011;1643;47.746;9.000;2022-11-25T01:13:37;4.57;;;3.97;;
3261;SDS011;1643;47.746;9.000;2022-11-25T01:16:03;5.73;;;4.17;;
3261;SDS011;1643;47.746;9.000;2022-11-25T01:18:30;6.20;;;4.20;;
3261;SDS011;1643;47.746;9.000;2022-11-25T01:21:10;4.00;;;3.30;;
3261;SDS011;1643;47.746;9.000;2022-11-25T01:23:41;4.80;;;3.83;;
3261;SDS011;1643;47.746;9.000;2022-11-25T01:26:11;5.17;;;4.03;;
3261;SDS011;1643;47.746;9.000;2022-11-25T01:28:38;5.27;;;3.70;;
3261;SDS011;1643;47.746;9.000;2022-11-25T01:31:09;3.70;;;3.40;;
3261;SDS011;1643;47.746;9.000;2022-11-25T01:33:35;7.73;;;4.30;;
3261;SDS011;1643;47.746;9.000;2022-11-25T01:36:02;6.30;;;3.47;;
3261;SDS011;1643;47.746;9.000;2022-11-25T01:38:29;6.10;;;4.30;;
3261;SDS011;1643;47.746;9.000;2022-11-25T01:40:56;5.80;;;3.93;;
3261;SDS011;1643;47.746;9.000;2022-11-25T01:43:22;5.73;;;4.50;;
3261;SDS011;1643;47.746;9.000;2022-11-25T01:45:48;4.20;;;3.40;;
3261;SDS011;1643;47.746;9.000;2022-11-25T01:48:18;7.57;;;4.37;;
3261;SDS011;1643;47.746;9.000;2022-11-25T01:50:48;4.27;;;3.87;;
3261;SDS011;1643;47.746;9.000;2022-11-25T01:53:15;6.67;;;3.53;;
3261;SDS011;1643;47.746;9.000;2022-11-25T01:55:48;5.17;;;4.13;;
3261;SDS011;1643;47.746;9.000;2022-11-25T01:58:27;4.30;;;3.70;;
3261;SDS011;1643;47.746;9.000;2022-11-25T02:00:56;4.77;;;4.00;;
3261;SDS011;1643;47.746;9.000;2022-11-25T02:03:23;5.37;;;3.77;;
3261;SDS011;1643;47.746;9.000;2022-11-25T02:08:41;6.40;;;4.40;;
3261;SDS011;1643;47.746;9.000;2022-11-25T02:11:10;4.93;;;4.17;;
3261;SDS011;1643;47.746;9.000;2022-11-25T02:13:37;9.40;;;5.00;;
3261;SDS011;1643;47.746;9.000;2022-11-25T02:16:03;4.80;;;3.60;;
3261;SDS011;1643;47.746;9.000;2022-11-25T02:18:29;4.43;;;3.63;;
3261;SDS011;1643;47.746;9.000;2022-11-25T02:20:55;3.70;;;3.27;;
3261;SDS011;1643;47.746;9.000;2022-11-25T02:25:57;6.20;;;3.90;;
3261;SDS011;1643;47.746;9.000;2022-11-25T02:28:24;4.60;;;3.47;;
3261;SDS011;1643;47.746;9.000;2022-11-25T02:30:53;6.70;;;3.37;;
3261;SDS011;1643;47.746;9.000;2022-11-25T02:33:19;4.53;;;3.77;;
3261;SDS011;1643;47.746;9.000;2022-11-25T02:38:35;4.23;;;3.83;;
3261;SDS011;1643;47.746;9.000;2022-11-25T02:44:18;4.17;;;3.53;;
3261;SDS011;1643;47.746;9.000;2022-11-25T02:46:44;3.73;;;3.43;;
3261;SDS011;1643;47.746;9.000;2022-11-25T02:49:10;5.30;;;3.53;;
3261;SDS011;1643;47.746;9.000;2022-11-25T02:51:37;5.47;;;3.47;;
3261;SDS011;1643;47.746;9.000;2022-11-25T02:54:04;4.47;;;3.53;;
3261;SDS011;1643;47.746;9.000;2022-11-25T02:56:31;3.43;;;3.13;;
3261;SDS011;1643;47.746;9.000;2022-11-25T02:58:57;3.83;;;3.43;;
3261;SDS011;1643;47.746;9.000;2022-11-25T03:01:23;4.03;;;3.63;;
3261;SDS011;1643;47.746;9.000;2022-11-25T03:03:49;4.23;;;3.37;;
3261;SDS011;1643;47.746;9.000;2022-11-25T03:06:14;3.50;;;3.20;;
3261;SDS011;1643;47.746;9.000;2022-11-25T03:08:40;2.90;;;2.63;;
3261;SDS011;1643;47.746;9.000;2022-11-25T03:11:06;2.90;;;2.70;;
3261;SDS011;1643;47.746;9.000;2022-11-25T03:13:32;3.20;;;2.90;;
3261;SDS011;1643;47.746;9.000;2022-11-25T03:15:57;4.27;;;3.00;;
3261;SDS011;1643;47.746;9.000;2022-11-25T03:18:23;6.10;;;4.07;;
3261;SDS011;1643;47.746;9.000;2022-11-25T03:20:52;2.73;;;2.53;;
3261;SDS011;1643;47.746;9.000;2022-11-25T03:23:18;4.13;;;3.30;;
3261;SDS011;1643;47.746;9.000;2022-11-25T03:25:44;3.97;;;3.37;;
3261;SDS011;1643;47.746;9.000;2022-11-25T03:28:09;3.90;;;3.40;;
3261;SDS011;1643;47.746;9.000;2022-11-25T03:30:35;8.03;;;4.20;;
3261;SDS011;1643;47.746;9.000;2022-11-25T03:33:01;5.47;;;4.20;;
3261;SDS011;1643;47.746;9.000;2022-11-25T03:35:26;6.70;;;3.93;;
3261;SDS011;1643;47.746;9.000;2022-11-25T03:37:53;5.13;;;3.70;;
3261;SDS011;1643;47.746;9.000;2022-11-25T03:40:19;5.00;;;3.50;;
3261;SDS011;1643;47.746;9.000;2022-11-25T03:42:45;4.83;;;3.73;;
3261;SDS011;1643;47.746;9.000;2022-11-25T03:45:12;5.43;;;3.73;;
3261;SDS011;1643;47.746;9.000;2022-11-25T03:47:39;5.73;;;3.80;;
3261;SDS011;1643;47.746;9.000;2022-11-25T03:50:06;7.23;;;4.20;;
3261;SDS011;1643;47.746;9.000;2022-11-25T03:52:32;5.20;;;3.90;;
3261;SDS011;1643;47.746;9.000;2022-11-25T03:54:58;4.80;;;4.00;;
3261;SDS011;1643;47.746;9.000;2022-11-25T03:57:23;5.60;;;4.00;;
3261;SDS011;1643;47.746;9.000;2022-11-25T03:59:49;5.20;;;3.90;;
3261;SDS011;1643;47.746;9.000;2022-11-25T04:02:15;3.77;;;3.40;;
3261;SDS011;1643;47.746;9.000;2022-11-25T04:04:41;3.77;;;3.40;;
3261;SDS011;1643;47.746;9.000;2022-11-25T04:07:07;6.00;;;4.40;;
3261;SDS011;1643;47.746;9.000;2022-11-25T04:09:33;5.37;;;3.70;;
3261;SDS011;1643;47.746;9.000;2022-11-25T04:11:58;3.53;;;3.20;;
3261;SDS011;1643;47.746;9.000;2022-11-25T04:14:43;3.97;;;3.47;;
3261;SDS011;1643;47.746;9.000;2022-11-25T04:17:08;3.73;;;3.40;;
3261;SDS011;1643;47.746;9.000;2022-11-25T04:19:34;4.37;;;3.70;;
3261;SDS011;1643;47.746;9.000;2022-11-25T04:21:59;4.73;;;3.67;;
3261;SDS011;1643;47.746;9.000;2022-11-25T04:24:26;5.13;;;3.47;;
3261;SDS011;1643;47.746;9.000;2022-11-25T04:26:52;7.23;;;5.17;;
3261;SDS011;1643;47.746;9.000;2022-11-25T04:29:18;4.60;;;3.40;;
3261;SDS011;1643;47.746;9.000;2022-11-25T04:31:44;5.60;;;3.73;;
3261;SDS011;1643;47.746;9.000;2022-11-25T04:34:10;13.20;;;4.00;;
3261;SDS011;1643;47.746;9.000;2022-11-25T04:36:35;8.53;;;3.60;;
3261;SDS011;1643;47.746;9.000;2022-11-25T04:39:01;4.33;;;3.67;;
3261;SDS011;1643;47.746;9.000;2022-11-25T04:41:27;4.93;;;3.93;;
3261;SDS011;1643;47.746;9.000;2022-11-25T04:43:53;3.80;;;3.33;;
3261;SDS011;1643;47.746;9.000;2022-11-25T04:46:21;5.67;;;4.47;;
3261;SDS011;1643;47.746;9.000;2022-11-25T04:48:50;4.87;;;3.60;;
3261;SDS011;1643;47.746;9.000;2022-11-25T04:51:16;8.40;;;3.77;;
3261;SDS011;1643;47.746;9.000;2022-11-25T04:53:41;4.97;;;4.13;;
3261;SDS011;1643;47.746;9.000;2022-11-25T04:56:08;4.33;;;3.93;;
3261;SDS011;1643;47.746;9.000;2022-11-25T04:58:39;5.47;;;4.90;;
3261;SDS011;1643;47.746;9.000;2022-11-25T05:01:23;6.50;;;4.80;;
3261;SDS011;1643;47.746;9.000;2022-11-25T05:03:49;6.07;;;4.60;;
3261;SDS011;1643;47.746;9.000;2022-11-25T05:06:15;5.20;;;4.70;;
3261;SDS011;1643;47.746;9.000;2022-11-25T05:08:40;6.47;;;5.10;;
3261;SDS011;1643;47.746;9.000;2022-11-25T05:11:06;6.33;;;4.90;;
3261;SDS011;1643;47.746;9.000;2022-11-25T05:13:31;7.43;;;4.40;;
3261;SDS011;1643;47.746;9.000;2022-11-25T05:15:57;5.00;;;4.37;;
3261;SDS011;1643;47.746;9.000;2022-11-25T05:18:24;5.43;;;4.23;;
3261;SDS011;1643;47.746;9.000;2022-11-25T05:20:49;5.33;;;4.00;;
3261;SDS011;1643;47.746;9.000;2022-11-25T05:23:15;4.80;;;4.27;;
3261;SDS011;1643;47.746;9.000;2022-11-25T05:25:41;7.23;;;3.80;;
3261;SDS011;1643;47.746;9.000;2022-11-25T05:28:06;4.80;;;4.40;;
3261;SDS011;1643;47.746;9.000;2022-11-25T05:30:32;4.20;;;3.70;;
3261;SDS011;1643;47.746;9.000;2022-11-25T05:32:57;5.83;;;4.57;;
3261;SDS011;1643;47.746;9.000;2022-11-25T05:35:23;6.43;;;4.37;;
3261;SDS011;1643;47.746;9.000;2022-11-25T05:37:48;4.83;;;4.43;;
3261;SDS011;1643;47.746;9.000;2022-11-25T05:40:14;5.67;;;4.30;;
3261;SDS011;1643;47.746;9.000;2022-11-25T05:42:40;6.80;;;4.90;;
3261;SDS011;1643;47.746;9.000;2022-11-25T05:45:05;8.00;;;5.47;;
3261;SDS011;1643;47.746;9.000;2022-11-25T05:47:31;6.40;;;5.30;;
3261;SDS011;1643;47.746;9.000;2022-11-25T05:49:57;9.00;;;5.63;;
3261;SDS011;1643;47.746;9.000;2022-11-25T05:52:23;7.90;;;5.27;;
3261;SDS011;1643;47.746;9.000;2022-11-25T05:54:48;8.30;;;5.60;;
3261;SDS011;1643;47.746;9.000;2022-11-25T05:57:14;7.40;;;5.37;;
3261;SDS011;1643;47.746;9.000;2022-11-25T05:59:39;5.90;;;4.93;;
3261;SDS011;1643;47.746;9.000;2022-11-25T06:02:05;5.90;;;5.30;;
3261;SDS011;1643;47.746;9.000;2022-11-25T06:04:31;8.40;;;5.67;;
3261;SDS011;1643;47.746;9.000;2022-11-25T06:06:56;7.57;;;5.70;;
3261;SDS011;1643;47.746;9.000;2022-11-25T06:09:22;6.33;;;5.70;;
3261;SDS011;1643;47.746;9.000;2022-11-25T06:11:48;10.07;;;5.97;;
3261;SDS011;1643;47.746;9.000;2022-11-25T06:14:14;7.70;;;4.77;;
3261;SDS011;1643;47.746;9.000;2022-11-25T06:16:41;10.97;;;5.80;;
3261;SDS011;1643;47.746;9.000;2022-11-25T06:19:07;9.00;;;5.53;;
3261;SDS011;1643;47.746;9.000;2022-11-25T06:21:33;4.97;;;4.47;;
3261;SDS011;1643;47.746;9.000;2022-11-25T06:23:59;5.47;;;4.30;;
3261;SDS011;1643;47.746;9.000;2022-11-25T06:26:24;7.67;;;5.83;;
3261;SDS011;1643;47.746;9.000;2022-11-25T06:28:55;5.50;;;4.97;;
3261;SDS011;1643;47.746;9.000;2022-11-25T06:31:21;6.57;;;5.60;;
3261;SDS011;1643;47.746;9.000;2022-11-25T06:33:49;11.57;;;4.97;;
3261;SDS011;1643;47.746;9.000;2022-11-25T06:36:16;8.90;;;5.67;;
3261;SDS011;1643;47.746;9.000;2022-11-25T06:38:43;7.33;;;5.10;;
3261;SDS011;1643;47.746;9.000;2022-11-25T06:41:13;8.63;;;6.33;;
3261;SDS011;1643;47.746;9.000;2022-11-25T06:43:39;8.43;;;5.03;;
3261;SDS011;1643;47.746;9.000;2022-11-25T06:46:06;8.03;;;6.17;;
3261;SDS011;1643;47.746;9.000;2022-11-25T06:48:33;7.67;;;6.03;;
3261;SDS011;1643;47.746;9.000;2022-11-25T06:51:00;6.37;;;5.20;;
3261;SDS011;1643;47.746;9.000;2022-11-25T06:53:28;8.10;;;5.83;;
3261;SDS011;1643;47.746;9.000;2022-11-25T06:56:07;10.10;;;6.70;;
3261;SDS011;1643;47.746;9.000;2022-11-25T06:58:36;9.43;;;6.67;;
3261;SDS011;1643;47.746;9.000;2022-11-25T07:03:29;13.77;;;8.20;;
3261;SDS011;1643;47.746;9.000;2022-11-25T07:05:58;9.63;;;7.87;;
3261;SDS011;1643;47.746;9.000;2022-11-25T07:08:24;10.17;;;7.10;;
3261;SDS011;1643;47.746;9.000;2022-11-25T07:10:51;10.10;;;7.70;;
3261;SDS011;1643;47.746;9.000;2022-11-25T07:13:17;13.67;;;8.63;;
3261;SDS011;1643;47.746;9.000;2022-11-25T07:15:44;13.43;;;8.13;;
3261;SDS011;1643;47.746;9.000;2022-11-25T07:18:09;19.73;;;9.07;;
3261;SDS011;1643;47.746;9.000;2022-11-25T07:20:35;18.93;;;9.27;;
3261;SDS011;1643;47.746;9.000;2022-11-25T07:23:01;18.47;;;10.97;;
3261;SDS011;1643;47.746;9.000;2022-11-25T07:25:27;22.80;;;11.90;;
3261;SDS011;1643;47.746;9.000;2022-11-25T07:27:52;16.27;;;8.87;;
3261;SDS011;1643;47.746;9.000;2022-11-25T07:30:18;13.03;;;8.33;;
3261;SDS011;1643;47.746;9.000;2022-11-25T07:32:43;14.50;;;9.30;;
3261;SDS011;1643;47.746;9.000;2022-11-25T07:35:09;14.60;;;8.67;;
3261;SDS011;1643;47.746;9.000;2022-11-25T07:37:35;15.07;;;8.80;;
3261;SDS011;1643;47.746;9.000;2022-11-25T07:40:00;16.70;;;9.80;;
3261;SDS011;1643;47.746;9.000;2022-11-25T07:42:26;13.67;;;9.00;;
3261;SDS011;1643;47.746;9.000;2022-11-25T07:44:51;13.23;;;9.20;;
3261;SDS011;1643;47.746;9.000;2022-11-25T07:47:17;15.53;;;9.00;;
3261;SDS011;1643;47.746;9.000;2022-11-25T07:49:43;11.77;;;9.00;;
3261;SDS011;1643;47.746;9.000;2022-11-25T07:52:08;15.43;;;8.70;;
3261;SDS011;1643;47.746;9.000;2022-11-25T07:54:34;15.70;;;10.07;;
3261;SDS011;1643;47.746;9.000;2022-11-25T07:56:59;12.20;;;9.20;;
3261;SDS011;1643;47.746;9.000;2022-11-25T07:59:25;13.97;;;9.97;;
3261;SDS011;1643;47.746;9.000;2022-11-25T08:01:51;15.03;;;10.20;;
3261;SDS011;1643;47.746;9.000;2022-11-25T08:04:18;18.57;;;9.67;;
3261;SDS011;1643;47.746;9.000;2022-11-25T08:06:45;16.50;;;10.27;;
3261;SDS011;1643;47.746;9.000;2022-11-25T08:09:13;11.77;;;8.90;;
3261;SDS011;1643;47.746;9.000;2022-11-25T08:11:42;15.33;;;10.30;;
3261;SDS011;1643;47.746;9.000;2022-11-25T08:14:08;22.07;;;11.37;;
3261;SDS011;1643;47.746;9.000;2022-11-25T08:16:34;14.07;;;9.83;;
3261;SDS011;1643;47.746;9.000;2022-11-25T08:19:01;16.10;;;10.40;;
3261;SDS011;1643;47.746;9.000;2022-11-25T08:21:28;19.57;;;10.20;;
3261;SDS011;1643;47.746;9.000;2022-11-25T08:23:54;16.33;;;9.77;;
3261;SDS011;1643;47.746;9.000;2022-11-25T08:28:45;20.37;;;12.60;;
3261;SDS011;1643;47.746;9.000;2022-11-25T08:31:21;19.37;;;11.97;;
3261;SDS011;1643;47.746;9.000;2022-11-25T08:33:49;20.03;;;12.40;;
3261;SDS011;1643;47.746;9.000;2022-11-25T08:36:16;19.97;;;11.20;;
3261;SDS011;1643;47.746;9.000;2022-11-25T08:38:43;23.20;;;13.00;;
3261;SDS011;1643;47.746;9.000;2022-11-25T08:41:13;25.53;;;14.97;;
3261;SDS011;1643;47.746;9.000;2022-11-25T08:43:40;21.90;;;12.53;;
3261;SDS011;1643;47.746;9.000;2022-11-25T08:46:07;21.60;;;12.40;;
3261;SDS011;1643;47.746;9.000;2022-11-25T08:48:34;20.50;;;12.30;;
3261;SDS011;1643;47.746;9.000;2022-11-25T08:51:00;24.00;;;11.83;;
3261;SDS011;1643;47.746;9.000;2022-11-25T08:53:26;24.80;;;13.23;;
3261;SDS011;1643;47.746;9.000;2022-11-25T08:55:51;23.60;;;14.37;;
3261;SDS011;1643;47.746;9.000;2022-11-25T08:58:17;21.57;;;12.90;;
3261;SDS011;1643;47.746;9.000;2022-11-25T09:00:43;16.90;;;11.83;;
3261;SDS011;1643;47.746;9.000;2022-11-25T09:03:09;19.33;;;12.93;;
3261;SDS011;1643;47.746;9.000;2022-11-25T09:05:39;16.13;;;10.20;;
3261;SDS011;1643;47.746;9.000;2022-11-25T09:08:07;15.70;;;10.20;;
3261;SDS011;1643;47.746;9.000;2022-11-25T09:10:33;15.73;;;10.23;;
3261;SDS011;1643;47.746;9.000;2022-11-25T09:13:00;13.57;;;8.80;;
3261;SDS011;1643;47.746;9.000;2022-11-25T09:15:25;13.27;;;8.83;;
3261;SDS011;1643;47.746;9.000;2022-11-25T09:17:58;11.63;;;8.20;;
3261;SDS011;1643;47.746;9.000;2022-11-25T09:20:28;11.70;;;8.63;;
3261;SDS011;1643;47.746;9.000;2022-11-25T09:22:55;13.50;;;8.70;;
3261;SDS011;1643;47.746;9.000;2022-11-25T09:25:24;15.43;;;9.30;;
3261;SDS011;1643;47.746;9.000;2022-11-25T09:27:49;11.87;;;8.77;;
3261;SDS011;1643;47.746;9.000;2022-11-25T09:30:15;19.93;;;10.60;;
3261;SDS011;1643;47.746;9.000;2022-11-25T09:32:41;15.53;;;10.13;;
3261;SDS011;1643;47.746;9.000;2022-11-25T09:35:07;21.00;;;12.87;;
3261;SDS011;1643;47.746;9.000;2022-11-25T09:37:33;14.70;;;10.23;;
3261;SDS011;1643;47.746;9.000;2022-11-25T09:39:59;18.23;;;10.83;;
3261;SDS011;1643;47.746;9.000;2022-11-25T09:42:28;17.47;;;12.73;;
3261;SDS011;1643;47.746;9.000;2022-11-25T09:45:26;12.73;;;8.40;;
3261;SDS011;1643;47.746;9.000;2022-11-25T09:50:59;11.93;;;8.47;;
3261;SDS011;1643;47.746;9.000;2022-11-25T09:53:37;15.87;;;8.57;;
3261;SDS011;1643;47.746;9.000;2022-11-25T10:02:19;14.70;;;8.43;;
3261;SDS011;1643;47.746;9.000;2022-11-25T10:04:57;15.90;;;9.30;;
3261;SDS011;1643;47.746;9.000;2022-11-25T10:07:33;13.90;;;8.77;;
3261;SDS011;1643;47.746;9.000;2022-11-25T10:10:04;12.97;;;9.00;;
3261;SDS011;1643;47.746;9.000;2022-11-25T10:12:37;14.40;;;9.73;;
3261;SDS011;1643;47.746;9.000;2022-11-25T10:15:49;21.93;;;11.93;;
3261;SDS011;1643;47.746;9.000;2022-11-25T10:18:00;18.30;;;11.20;;
3261;SDS011;1643;47.746;9.000;2022-11-25T10:20:32;20.83;;;11.67;;
3261;SDS011;1643;47.746;9.000;2022-11-25T10:23:04;19.80;;;11.97;;
3261;SDS011;1643;47.746;9.000;2022-11-25T10:25:46;18.90;;;10.50;;
3261;SDS011;1643;47.746;9.000;2022-11-25T10:28:17;13.70;;;9.90;;
3261;SDS011;1643;47.746;9.000;2022-11-25T10:33:36;17.10;;;11.87;;
3261;SDS011;1643;47.746;9.000;2022-11-25T10:38:58;15.20;;;10.07;;
3261;SDS011;1643;47.746;9.000;2022-11-25T10:41:31;13.67;;;9.50;;
3261;SDS011;1643;47.746;9.000;2022-11-25T10:44:20;16.50;;;9.63;;
3261;SDS011;1643;47.746;9.000;2022-11-25T10:47:02;14.83;;;9.50;;
3261;SDS011;1643;47.746;9.000;2022-11-25T10:52:29;12.03;;;9.13;;
3261;SDS011;1643;47.746;9.000;2022-11-25T10:55:23;17.63;;;9.53;;
3261;SDS011;1643;47.746;9.000;2022-11-25T10:57:50;11.70;;;9.00;;
3261;SDS011;1643;47.746;9.000;2022-11-25T11:00:32;12.60;;;7.97;;
3261;SDS011;1643;47.746;9.000;2022-11-25T11:03:20;13.33;;;7.20;;
3261;SDS011;1643;47.746;9.000;2022-11-25T11:05:49;12.43;;;7.70;;
3261;SDS011;1643;47.746;9.000;2022-11-25T11:08:58;10.90;;;7.50;;
3261;SDS011;1643;47.746;9.000;2022-11-25T11:13:42;11.23;;;8.37;;
3261;SDS011;1643;47.746;9.000;2022-11-25T11:18:49;10.93;;;7.57;;
3261;SDS011;1643;47.746;9.000;2022-11-25T11:21:32;9.40;;;6.97;;
3261;SDS011;1643;47.746;9.000;2022-11-25T11:24:00;7.60;;;6.23;;
3261;SDS011;1643;47.746;9.000;2022-11-25T11:26:28;9.30;;;5.80;;
3261;SDS011;1643;47.746;9.000;2022-11-25T11:29:11;8.33;;;5.70;;
3261;SDS011;1643;47.746;9.000;2022-11-25T11:31:43;6.00;;;4.77;;
3261;SDS011;1643;47.746;9.000;2022-11-25T11:48:03;7.00;;;4.77;;
3261;SDS011;1643;47.746;9.000;2022-11-25T11:51:23;6.93;;;4.93;;
3261;SDS011;1643;47.746;9.000;2022-11-25T11:56:40;6.40;;;5.00;;
3261;SDS011;1643;47.746;9.000;2022-11-25T12:05:00;8.20;;;5.97;;
3261;SDS011;1643;47.746;9.000;2022-11-25T12:08:13;11.80;;;4.90;;
3261;SDS011;1643;47.746;9.000;2022-11-25T12:10:50;8.53;;;4.77;;
3261;SDS011;1643;47.746;9.000;2022-11-25T12:13:34;5.67;;;4.30;;
3261;SDS011;1643;47.746;9.000;2022-11-25T12:19:18;9.00;;;4.93;;
3261;SDS011;1643;47.746;9.000;2022-11-25T12:24:28;43.83;;;22.63;;
3261;SDS011;1643;47.746;9.000;2022-11-25T12:27:16;66.77;;;38.47;;
3261;SDS011;1643;47.746;9.000;2022-11-25T12:30:03;26.50;;;17.80;;
3261;SDS011;1643;47.746;9.000;2022-11-25T12:35:22;13.13;;;11.20;;
3261;SDS011;1643;47.746;9.000;2022-11-25T12:40:34;13.37;;;9.10;;
3261;SDS011;1643;47.746;9.000;2022-11-25T12:48:42;6.00;;;4.20;;
3261;SDS011;1643;47.746;9.000;2022-11-25T12:53:49;7.87;;;4.30;;
3261;SDS011;1643;47.746;9.000;2022-11-25T12:56:20;5.67;;;3.90;;
3261;SDS011;1643;47.746;9.000;2022-11-25T13:02:23;6.70;;;4.40;;
3261;SDS011;1643;47.746;9.000;2022-11-25T13:16:25;5.93;;;4.33;;
3261;SDS011;1643;47.746;9.000;2022-11-25T13:18:51;7.60;;;3.33;;
3261;SDS011;1643;47.746;9.000;2022-11-25T13:21:19;7.57;;;4.70;;
3261;SDS011;1643;47.746;9.000;2022-11-25T13:23:51;6.53;;;5.20;;
3261;SDS011;1643;47.746;9.000;2022-11-25T13:28:56;4.23;;;3.60;;
3261;SDS011;1643;47.746;9.000;2022-11-25T13:31:24;10.60;;;3.67;;
3261;SDS011;1643;47.746;9.000;2022-11-25T13:34:20;5.63;;;4.03;;
3261;SDS011;1643;47.746;9.000;2022-11-25T13:36:50;5.53;;;3.70;;
3261;SDS011;1643;47.746;9.000;2022-11-25T13:39:27;8.20;;;3.80;;
3261;SDS011;1643;47.746;9.000;2022-11-25T13:44:30;5.77;;;4.00;;
3261;SDS011;1643;47.746;9.000;2022-11-25T13:48:02;6.03;;;3.63;;
3261;SDS011;1643;47.746;9.000;2022-11-25T13:57:40;8.77;;;5.17;;
3261;SDS011;1643;47.746;9.000;2022-11-25T14:00:58;6.03;;;4.30;;
3261;SDS011;1643;47.746;9.000;2022-11-25T14:03:58;10.83;;;6.23;;
3261;SDS011;1643;47.746;9.000;2022-11-25T14:19:36;8.37;;;4.90;;
3261;SDS011;1643;47.746;9.000;2022-11-25T14:25:15;10.97;;;5.33;;
3261;SDS011;1643;47.746;9.000;2022-11-25T14:27:44;7.40;;;4.87;;
3261;SDS011;1643;47.746;9.000;2022-11-25T14:30:12;7.83;;;5.13;;
3261;SDS011;1643;47.746;9.000;2022-11-25T14:32:41;5.63;;;4.77;;
3261;SDS011;1643;47.746;9.000;2022-11-25T14:35:22;6.83;;;5.20;;
3261;SDS011;1643;47.746;9.000;2022-11-25T14:37:58;5.57;;;3.83;;
3261;SDS011;1643;47.746;9.000;2022-11-25T14:40:40;7.57;;;4.90;;
3261;SDS011;1643;47.746;9.000;2022-11-25T14:43:22;8.63;;;4.47;;
3261;SDS011;1643;47.746;9.000;2022-11-25T14:48:42;6.03;;;5.10;;
3261;SDS011;1643;47.746;9.000;2022-11-25T14:51:09;10.40;;;4.83;;
3261;SDS011;1643;47.746;9.000;2022-11-25T14:53:40;7.10;;;4.70;;
3261;SDS011;1643;47.746;9.000;2022-11-25T14:56:07;7.60;;;5.40;;
3261;SDS011;1643;47.746;9.000;2022-11-25T14:58:33;11.43;;;6.53;;
3261;SDS011;1643;47.746;9.000;2022-11-25T15:01:15;9.60;;;5.60;;
3261;SDS011;1643;47.746;9.000;2022-11-25T15:03:47;8.50;;;4.60;;
3261;SDS011;1643;47.746;9.000;2022-11-25T15:06:14;6.50;;;5.13;;
3261;SDS011;1643;47.746;9.000;2022-11-25T15:08:45;5.63;;;5.00;;
3261;SDS011;1643;47.746;9.000;2022-11-25T15:11:19;9.30;;;5.63;;
3261;SDS011;1643;47.746;9.000;2022-11-25T15:13:52;9.17;;;5.73;;
3261;SDS011;1643;47.746;9.000;2022-11-25T15:16:25;6.30;;;5.17;;
3261;SDS011;1643;47.746;9.000;2022-11-25T15:18:59;15.60;;;5.93;;
3261;SDS011;1643;47.746;9.000;2022-11-25T15:21:29;10.83;;;6.20;;
3261;SDS011;1643;47.746;9.000;2022-11-25T15:23:56;6.50;;;5.10;;
3261;SDS011;1643;47.746;9.000;2022-11-25T15:26:23;6.23;;;4.50;;
3261;SDS011;1643;47.746;9.000;2022-11-25T15:28:57;9.90;;;5.17;;
3261;SDS011;1643;47.746;9.000;2022-11-25T15:31:33;9.63;;;4.63;;
3261;SDS011;1643;47.746;9.000;2022-11-25T15:34:01;15.87;;;5.50;;
3261;SDS011;1643;47.746;9.000;2022-11-25T15:36:28;18.13;;;7.10;;
3261;SDS011;1643;47.746;9.000;2022-11-25T15:38:54;10.70;;;6.87;;
3261;SDS011;1643;47.746;9.000;2022-11-25T15:41:36;20.23;;;11.33;;
3261;SDS011;1643;47.746;9.000;2022-11-25T15:44:05;61.03;;;23.57;;
3261;SDS011;1643;47.746;9.000;2022-11-25T15:46:32;50.00;;;22.50;;
3261;SDS011;1643;47.746;9.000;2022-11-25T15:49:00;65.27;;;26.40;;
3261;SDS011;1643;47.746;9.000;2022-11-25T15:53:58;69.60;;;32.37;;
3261;SDS011;1643;47.746;9.000;2022-11-25T15:56:30;64.90;;;30.20;;
3261;SDS011;1643;47.746;9.000;2022-11-25T15:58:58;52.80;;;27.50;;
3261;SDS011;1643;47.746;9.000;2022-11-25T16:01:26;59.33;;;27.83;;
3261;SDS011;1643;47.746;9.000;2022-11-25T16:03:52;132.57;;;52.77;;
3261;SDS011;1643;47.746;9.000;2022-11-25T16:06:34;62.07;;;28.93;;
3261;SDS011;1643;47.746;9.000;2022-11-25T16:09:01;35.67;;;15.83;;
3261;SDS011;1643;47.746;9.000;2022-11-25T16:11:29;16.80;;;9.83;;
3261;SDS011;1643;47.746;9.000;2022-11-25T16:17:04;10.90;;;6.50;;
3261;SDS011;1643;47.746;9.000;2022-11-25T16:19:37;8.57;;;5.00;;
3261;SDS011;1643;47.746;9.000;2022-11-25T16:22:08;8.30;;;4.70;;
3261;SDS011;1643;47.746;9.000;2022-11-25T16:24:50;4.47;;;4.07;;
3261;SDS011;1643;47.746;9.000;2022-11-25T16:27:23;5.47;;;4.20;;
3261;SDS011;1643;47.746;9.000;2022-11-25T16:29:54;5.50;;;3.80;;
3261;SDS011;1643;47.746;9.000;2022-11-25T16:32:26;5.53;;;4.03;;
3261;SDS011;1643;47.746;9.000;2022-11-25T16:34:53;5.23;;;3.70;;
3261;SDS011;1643;47.746;9.000;2022-11-25T16:37:21;5.97;;;3.90;;
3261;SDS011;1643;47.746;9.000;2022-11-25T16:39:47;5.47;;;4.17;;
3261;SDS011;1643;47.746;9.000;2022-11-25T16:42:15;5.73;;;3.63;;
3261;SDS011;1643;47.746;9.000;2022-11-25T16:44:46;6.57;;;4.23;;
3261;SDS011;1643;47.746;9.000;2022-11-25T16:47:13;9.00;;;3.97;;
3261;SDS011;1643;47.746;9.000;2022-11-25T16:49:40;10.00;;;5.27;;
3261;SDS011;1643;47.746;9.000;2022-11-25T16:52:05;6.17;;;4.57;;
3261;SDS011;1643;47.746;9.000;2022-11-25T16:54:31;7.13;;;4.90;;
3261;SDS011;1643;47.746;9.000;2022-11-25T16:56:57;7.50;;;4.77;;
3261;SDS011;1643;47.746;9.000;2022-11-25T16:59:34;10.53;;;6.50;;
3261;SDS011;1643;47.746;9.000;2022-11-25T17:02:01;15.40;;;9.17;;
3261;SDS011;1643;47.746;9.000;2022-11-25T17:04:29;16.03;;;10.60;;
3261;SDS011;1643;47.746;9.000;2022-11-25T17:06:55;17.10;;;10.43;;
3261;SDS011;1643;47.746;9.000;2022-11-25T17:09:20;17.70;;;11.43;;
3261;SDS011;1643;47.746;9.000;2022-11-25T17:11:47;15.53;;;9.93;;
3261;SDS011;1643;47.746;9.000;2022-11-25T17:14:28;12.70;;;8.93;;
3261;SDS011;1643;47.746;9.000;2022-11-25T17:16:57;9.23;;;6.70;;
3261;SDS011;1643;47.746;9.000;2022-11-25T17:19:24;10.67;;;7.70;;
3261;SDS011;1643;47.746;9.000;2022-11-25T17:21:50;15.37;;;10.20;;
3261;SDS011;1643;47.746;9.000;2022-11-25T17:24:19;27.33;;;16.10;;
3261;SDS011;1643;47.746;9.000;2022-11-25T17:26:56;46.07;;;20.90;;
3261;SDS011;1643;47.746;9.000;2022-11-25T17:29:34;29.97;;;14.17;;
3261;SDS011;1643;47.746;9.000;2022-11-25T17:32:03;22.70;;;11.00;;
3261;SDS011;1643;47.746;9.000;2022-11-25T17:34:29;13.87;;;9.17;;
3261;SDS011;1643;47.746;9.000;2022-11-25T17:36:55;14.77;;;8.40;;